Time;durP1;ratioP1;P1;durP2;ratioP2;P2;SDS_P1;SDS_P2;PMS_P1;PMS_P2;Temp;Humidity;BMP_temperature;BMP_pressure;BME280_temperature;BME280_humidity;BME280_pressure;Samples;Min_cycle;Max_cycle;Signal;HPM_P1;HPM_P2
2021/05/02 00:00:15;;;;;;;11.73;10.60;;;;;;;;;;5070510;28;20409;-55
2021/05/02 00:02:41;;;;;;;14.53;11.07;;;;;;;;;;5071157;28;20415;-54
2021/05/02 00:05:07;;;;;;;15.30;11.87;;;;;;;;;;5071117;28;20405;-54
2021/05/02 00:07:34;;;;;;;14.43;11.23;;;;;;;;;;5070977;28;20440;-55
2021/05/02 00:10:00;;;;;;;18.13;11.80;;;;;;;;;;5070833;28;20497;-54
2021/05/02 00:12:26;;;;;;;13.70;11.20;;;;;;;;;;5070939;28;20400;-55
2021/05/02 00:14:53;;;;;;;16.83;12.47;;;;;;;;;;5070892;28;20401;-54
2021/05/02 00:17:19;;;;;;;14.48;11.90;;;;;;;;;;5070942;28;20403;-54
2021/05/02 00:19:46;;;;;;;17.25;13.45;;;;;;;;;;5070667;28;20191;-54
2021/05/02 00:22:12;;;;;;;15.75;12.77;;;;;;;;;;5070853;28;20643;-54
2021/05/02 00:24:38;;;;;;;17.43;13.47;;;;;;;;;;5070992;28;20180;-54
2021/05/02 00:27:04;;;;;;;14.10;11.93;;;;;;;;;;5070791;28;20810;-54
2021/05/02 00:29:30;;;;;;;16.13;12.43;;;;;;;;;;5070490;28;20930;-54
2021/05/02 00:31:57;;;;;;;17.30;13.18;;;;;;;;;;5070643;28;20186;-53
2021/05/02 00:34:24;;;;;;;18.15;14.38;;;;;;;;;;5070751;28;20198;-55
2021/05/02 00:36:50;;;;;;;17.25;13.50;;;;;;;;;;5070711;28;20255;-54
2021/05/02 00:39:16;;;;;;;16.05;13.43;;;;;;;;;;5070415;28;20259;-54
2021/05/02 00:41:46;;;;;;;20.90;14.30;;;;;;;;;;5070692;28;20621;-55
2021/05/02 00:44:17;;;;;;;17.60;13.45;;;;;;;;;;5070612;28;20401;-54
2021/05/02 00:46:57;;;;;;;16.05;13.20;;;;;;;;;;5070648;28;20766;-54
2021/05/02 00:49:30;;;;;;;19.15;14.75;;;;;;;;;;5070380;28;20693;-55
2021/05/02 00:51:59;;;;;;;19.25;13.90;;;;;;;;;;5070522;28;20654;-54
2021/05/02 00:54:45;;;;;;;18.20;13.80;;;;;;;;;;5070498;28;20285;-54
2021/05/02 00:57:22;;;;;;;18.03;13.80;;;;;;;;;;5070553;28;20267;-55
2021/05/02 00:59:53;;;;;;;16.37;12.77;;;;;;;;;;5070498;28;20792;-55
2021/05/02 01:02:21;;;;;;;19.20;14.35;;;;;;;;;;5069966;28;20393;-55
2021/05/02 01:04:47;;;;;;;19.10;14.02;;;;;;;;;;5070076;28;20171;-54
2021/05/02 01:07:18;;;;;;;20.92;14.25;;;;;;;;;;5074257;28;20199;-55
2021/05/02 01:09:44;;;;;;;19.45;14.60;;;;;;;;;;5074318;28;20186;-55
2021/05/02 01:12:12;;;;;;;17.13;13.20;;;;;;;;;;5074320;28;20181;-54
2021/05/02 01:14:41;;;;;;;19.30;14.90;;;;;;;;;;5074490;28;20416;-54
2021/05/02 01:17:08;;;;;;;21.97;14.67;;;;;;;;;;5074291;28;20386;-55
2021/05/02 01:19:34;;;;;;;20.73;15.43;;;;;;;;;;5074224;28;20461;-54
2021/05/02 01:22:00;;;;;;;23.20;16.70;;;;;;;;;;5074580;28;20798;-54
2021/05/02 01:24:26;;;;;;;22.83;16.10;;;;;;;;;;5074563;28;20396;-54
2021/05/02 01:26:53;;;;;;;19.92;15.90;;;;;;;;;;5074793;28;20397;-55
2021/05/02 01:29:20;;;;;;;23.97;15.60;;;;;;;;;;5073944;28;20195;-54
2021/05/02 01:31:46;;;;;;;20.92;15.45;;;;;;;;;;5074004;28;20476;-54
2021/05/02 01:34:12;;;;;;;24.20;17.70;;;;;;;;;;5074068;28;20198;-54
2021/05/02 01:36:38;;;;;;;23.90;16.90;;;;;;;;;;5074136;28;20546;-54
2021/05/02 01:39:05;;;;;;;24.73;17.02;;;;;;;;;;5073700;28;20856;-54
2021/05/02 01:41:31;;;;;;;26.05;15.82;;;;;;;;;;5073957;28;20681;-54
2021/05/02 01:43:57;;;;;;;26.03;17.00;;;;;;;;;;5073860;28;20171;-55
2021/05/02 01:46:30;;;;;;;23.77;16.00;;;;;;;;;;5073786;28;20417;-54
2021/05/02 01:48:56;;;;;;;25.73;16.67;;;;;;;;;;5073410;28;20434;-54
2021/05/02 01:51:23;;;;;;;23.87;17.13;;;;;;;;;;5073732;28;20166;-54
2021/05/02 01:53:49;;;;;;;23.73;15.45;;;;;;;;;;5073558;28;20480;-55
2021/05/02 01:56:16;;;;;;;26.67;17.80;;;;;;;;;;5073623;28;20620;-54
2021/05/02 01:58:42;;;;;;;24.40;16.73;;;;;;;;;;5073251;28;20194;-54
2021/05/02 02:01:11;;;;;;;23.08;16.52;;;;;;;;;;5073538;28;20659;-54
2021/05/02 02:03:37;;;;;;;22.23;15.43;;;;;;;;;;5073474;28;20181;-54
2021/05/02 02:06:04;;;;;;;25.63;17.50;;;;;;;;;;5073625;28;20199;-54
2021/05/02 02:08:29;;;;;;;18.37;14.67;;;;;;;;;;5073335;28;20425;-54
2021/05/02 02:10:56;;;;;;;26.17;16.83;;;;;;;;;;5073061;28;20420;-54
2021/05/02 02:13:22;;;;;;;22.88;16.83;;;;;;;;;;5073137;28;20482;-54
2021/05/02 02:15:48;;;;;;;20.60;15.60;;;;;;;;;;5073275;28;20170;-54
2021/05/02 02:18:16;;;;;;;24.35;16.40;;;;;;;;;;5072288;28;20354;-54
2021/05/02 02:20:48;;;;;;;21.33;16.13;;;;;;;;;;5072939;28;20249;-54
2021/05/02 02:23:25;;;;;;;25.83;16.35;;;;;;;;;;5073050;28;20191;-54
2021/05/02 02:25:51;;;;;;;19.08;14.23;;;;;;;;;;5073090;28;20182;-54
2021/05/02 02:28:18;;;;;;;20.35;15.45;;;;;;;;;;5072834;28;20186;-54
2021/05/02 02:30:45;;;;;;;18.73;14.45;;;;;;;;;;5072684;28;20190;-54
2021/05/02 02:33:12;;;;;;;23.58;14.38;;;;;;;;;;5072846;28;20204;-54
2021/05/02 02:35:46;;;;;;;20.38;15.90;;;;;;;;;;5072991;28;20246;-54
2021/05/02 02:38:14;;;;;;;21.02;15.00;;;;;;;;;;5072791;28;20239;-54
2021/05/02 02:40:40;;;;;;;21.17;14.07;;;;;;;;;;5072410;28;20634;-55
2021/05/02 02:43:06;;;;;;;18.53;14.30;;;;;;;;;;5072723;28;20192;-55
2021/05/02 02:45:37;;;;;;;17.40;13.25;;;;;;;;;;5072699;28;20401;-55
2021/05/02 02:48:04;;;;;;;19.83;12.55;;;;;;;;;;5072531;28;20681;-54
2021/05/02 02:50:31;;;;;;;20.30;13.57;;;;;;;;;;5072369;28;20196;-54
2021/05/02 02:53:01;;;;;;;18.88;12.65;;;;;;;;;;5072381;28;20240;-55
2021/05/02 02:55:27;;;;;;;19.95;14.13;;;;;;;;;;5072533;28;20529;-54
2021/05/02 02:57:53;;;;;;;15.43;11.87;;;;;;;;;;5072404;28;20208;-55
2021/05/02 03:00:20;;;;;;;21.37;11.90;;;;;;;;;;5072200;28;20389;-54
2021/05/02 03:02:50;;;;;;;20.85;11.82;;;;;;;;;;5072435;28;20527;-54
2021/05/02 03:05:19;;;;;;;15.43;10.95;;;;;;;;;;5072413;28;20249;-54
2021/05/02 03:07:47;;;;;;;13.68;10.25;;;;;;;;;;5072291;28;20612;-55
2021/05/02 03:10:14;;;;;;;16.55;11.30;;;;;;;;;;5071993;28;20166;-54
2021/05/02 03:12:40;;;;;;;12.52;9.25;;;;;;;;;;5072239;28;20197;-54
2021/05/02 03:15:06;;;;;;;13.02;9.05;;;;;;;;;;5072195;28;20166;-54
2021/05/02 03:17:33;;;;;;;14.07;10.60;;;;;;;;;;5072256;28;20193;-54
2021/05/02 03:20:02;;;;;;;15.55;11.05;;;;;;;;;;5071919;28;20632;-54
2021/05/02 03:22:40;;;;;;;14.30;10.13;;;;;;;;;;5072180;28;20170;-54
2021/05/02 03:25:10;;;;;;;13.88;9.30;;;;;;;;;;5072158;28;20528;-54
2021/05/02 03:27:37;;;;;;;15.20;9.52;;;;;;;;;;5072280;28;20170;-54
2021/05/02 03:30:08;;;;;;;15.65;10.18;;;;;;;;;;5071962;28;20166;-54
2021/05/02 03:32:36;;;;;;;13.75;9.55;;;;;;;;;;5071976;28;20216;-55
2021/05/02 03:35:03;;;;;;;12.98;10.05;;;;;;;;;;5072107;28;20170;-54
2021/05/02 03:37:33;;;;;;;12.25;9.80;;;;;;;;;;5071755;28;20166;-54
2021/05/02 03:39:59;;;;;;;11.00;9.48;;;;;;;;;;5071466;28;20163;-54
2021/05/02 03:42:26;;;;;;;12.65;8.75;;;;;;;;;;5071709;28;20165;-54
2021/05/02 03:44:52;;;;;;;14.93;9.52;;;;;;;;;;5071554;28;20194;-54
2021/05/02 03:47:18;;;;;;;12.43;9.63;;;;;;;;;;5071464;28;20627;-54
2021/05/02 03:49:44;;;;;;;13.97;8.93;;;;;;;;;;5071062;28;20420;-54
2021/05/02 03:52:13;;;;;;;13.90;9.43;;;;;;;;;;5071437;28;20397;-54
2021/05/02 03:54:39;;;;;;;10.82;8.15;;;;;;;;;;5071181;28;20448;-54
2021/05/02 03:57:05;;;;;;;11.30;9.35;;;;;;;;;;5071346;28;20166;-54
2021/05/02 03:59:31;;;;;;;12.65;7.95;;;;;;;;;;5071189;28;20534;-54
2021/05/02 04:01:58;;;;;;;9.87;7.17;;;;;;;;;;5071164;28;20173;-54
2021/05/02 04:04:25;;;;;;;14.15;8.93;;;;;;;;;;5071067;28;20398;-54
2021/05/02 04:06:51;;;;;;;12.82;7.70;;;;;;;;;;5071199;28;20250;-55
2021/05/02 04:09:18;;;;;;;12.40;7.13;;;;;;;;;;5070722;28;20728;-54
2021/05/02 04:11:45;;;;;;;12.40;8.35;;;;;;;;;;5071152;28;20194;-54
2021/05/02 04:14:12;;;;;;;11.88;8.90;;;;;;;;;;5070954;28;20216;-54
2021/05/02 04:16:38;;;;;;;13.35;9.73;;;;;;;;;;5070974;28;20162;-54
2021/05/02 04:19:04;;;;;;;16.10;9.02;;;;;;;;;;5069287;28;20216;-54
2021/05/02 04:21:30;;;;;;;11.57;9.50;;;;;;;;;;5070982;28;20664;-54
2021/05/02 04:23:57;;;;;;;13.10;9.13;;;;;;;;;;5070820;28;20174;-54
2021/05/02 04:26:23;;;;;;;14.70;10.82;;;;;;;;;;5070913;28;20872;-55
2021/05/02 04:28:49;;;;;;;17.92;10.73;;;;;;;;;;5070434;28;20208;-55
2021/05/02 04:31:15;;;;;;;14.30;10.65;;;;;;;;;;5070643;28;20185;-54
2021/05/02 04:33:41;;;;;;;22.90;13.63;;;;;;;;;;5070660;28;20281;-55
2021/05/02 04:36:07;;;;;;;17.03;12.60;;;;;;;;;;5070761;28;20218;-54
2021/05/02 04:38:35;;;;;;;16.33;11.00;;;;;;;;;;5070503;28;20500;-55
2021/05/02 04:41:01;;;;;;;19.63;11.40;;;;;;;;;;5070016;28;20396;-54
2021/05/02 04:43:27;;;;;;;18.42;11.63;;;;;;;;;;5070659;28;20171;-54
2021/05/02 04:45:53;;;;;;;14.67;10.83;;;;;;;;;;5070709;28;20173;-54
2021/05/02 04:48:19;;;;;;;14.33;11.47;;;;;;;;;;5070630;28;20432;-54
2021/05/02 04:50:45;;;;;;;18.00;11.77;;;;;;;;;;5070297;28;20405;-54
2021/05/02 04:53:12;;;;;;;21.03;11.07;;;;;;;;;;5070555;28;20464;-54
2021/05/02 04:55:37;;;;;;;14.50;11.13;;;;;;;;;;5070622;28;20401;-55
2021/05/02 04:58:06;;;;;;;18.20;11.70;;;;;;;;;;5070431;28;20424;-54
2021/05/02 05:00:32;;;;;;;19.03;11.23;;;;;;;;;;5070477;28;20462;-54
2021/05/02 05:02:58;;;;;;;17.58;12.20;;;;;;;;;;5070774;28;20396;-54
2021/05/02 05:05:24;;;;;;;15.93;11.27;;;;;;;;;;5070531;28;20168;-54
2021/05/02 05:07:50;;;;;;;14.87;11.50;;;;;;;;;;5070507;28;20184;-54
2021/05/02 05:10:17;;;;;;;17.52;12.98;;;;;;;;;;5070263;28;20398;-54
2021/05/02 05:12:43;;;;;;;15.82;12.23;;;;;;;;;;5070526;28;20198;-54
2021/05/02 05:15:09;;;;;;;16.33;12.45;;;;;;;;;;5070457;28;20253;-54
2021/05/02 05:17:35;;;;;;;13.95;10.80;;;;;;;;;;5070599;28;20166;-54
2021/05/02 05:20:02;;;;;;;16.15;12.55;;;;;;;;;;5070327;28;20665;-55
2021/05/02 05:22:28;;;;;;;16.83;12.00;;;;;;;;;;5070608;28;20221;-54
2021/05/02 05:24:54;;;;;;;15.70;11.23;;;;;;;;;;5070612;28;20901;-54
2021/05/02 05:27:20;;;;;;;17.73;11.33;;;;;;;;;;5070796;28;20827;-54
2021/05/02 05:29:45;;;;;;;15.73;10.50;;;;;;;;;;5070335;28;20420;-54
2021/05/02 05:32:11;;;;;;;15.27;11.00;;;;;;;;;;5070602;28;20637;-54
2021/05/02 05:34:37;;;;;;;12.50;10.13;;;;;;;;;;5070274;28;20502;-54
2021/05/02 05:37:03;;;;;;;19.50;11.00;;;;;;;;;;5070287;28;20401;-54
2021/05/02 05:39:29;;;;;;;13.10;9.20;;;;;;;;;;5069860;28;20417;-54
2021/05/02 05:41:55;;;;;;;14.43;8.60;;;;;;;;;;5070212;28;20650;-55
2021/05/02 05:44:21;;;;;;;11.03;8.63;;;;;;;;;;5070233;28;20396;-54
2021/05/02 05:46:47;;;;;;;14.63;9.07;;;;;;;;;;5070115;28;20432;-54
2021/05/02 05:49:15;;;;;;;14.27;8.97;;;;;;;;;;5069820;28;20930;-54
2021/05/02 05:51:42;;;;;;;12.38;7.82;;;;;;;;;;5070224;28;20787;-54
2021/05/02 05:54:08;;;;;;;9.57;8.00;;;;;;;;;;5073670;28;20610;-54
2021/05/02 05:56:35;;;;;;;9.63;7.90;;;;;;;;;;5073542;28;20166;-55
2021/05/02 05:59:01;;;;;;;11.48;8.18;;;;;;;;;;5073443;28;20444;-54
2021/05/02 06:01:27;;;;;;;12.63;7.73;;;;;;;;;;5073503;28;20205;-54
2021/05/02 06:03:54;;;;;;;8.43;7.20;;;;;;;;;;5073483;28;20409;-54
2021/05/02 06:06:20;;;;;;;12.93;7.97;;;;;;;;;;5073409;28;20786;-54
2021/05/02 06:08:46;;;;;;;13.00;7.70;;;;;;;;;;5073061;28;20678;-54
2021/05/02 06:11:12;;;;;;;9.97;7.13;;;;;;;;;;5073227;28;20491;-54
2021/05/02 06:13:38;;;;;;;13.00;8.47;;;;;;;;;;5073266;28;20456;-54
2021/05/02 06:16:04;;;;;;;9.93;7.43;;;;;;;;;;5073242;28;20409;-55
2021/05/02 06:18:30;;;;;;;10.77;7.50;;;;;;;;;;5073182;28;20538;-54
2021/05/02 06:20:57;;;;;;;10.07;7.17;;;;;;;;;;5072896;28;20257;-54
2021/05/02 06:23:23;;;;;;;14.63;8.00;;;;;;;;;;5073079;28;20919;-54
2021/05/02 06:25:49;;;;;;;11.53;8.17;;;;;;;;;;5073024;28;20483;-54
2021/05/02 06:28:15;;;;;;;13.90;9.90;;;;;;;;;;5072982;28;20460;-54
2021/05/02 06:30:41;;;;;;;11.40;8.30;;;;;;;;;;5072675;28;20409;-54
2021/05/02 06:33:07;;;;;;;8.60;7.30;;;;;;;;;;5072997;28;20456;-54
2021/05/02 06:35:33;;;;;;;9.73;7.60;;;;;;;;;;5072881;28;20408;-54
2021/05/02 06:37:59;;;;;;;16.53;8.33;;;;;;;;;;5072841;28;20426;-55
2021/05/02 06:40:25;;;;;;;11.33;8.20;;;;;;;;;;5072434;28;20407;-54
2021/05/02 06:42:51;;;;;;;11.23;7.77;;;;;;;;;;5072803;28;20401;-54
2021/05/02 06:45:18;;;;;;;11.77;7.00;;;;;;;;;;5072704;28;20402;-54
2021/05/02 06:47:45;;;;;;;8.57;7.23;;;;;;;;;;5072658;28;20434;-54
2021/05/02 06:50:11;;;;;;;10.30;7.13;;;;;;;;;;5072501;28;20401;-54
2021/05/02 06:52:37;;;;;;;10.20;7.53;;;;;;;;;;5072545;28;20182;-54
2021/05/02 06:55:03;;;;;;;11.93;6.70;;;;;;;;;;5072627;28;20786;-55
2021/05/02 06:57:29;;;;;;;15.33;8.30;;;;;;;;;;5072449;28;20450;-54
2021/05/02 06:59:55;;;;;;;7.67;6.93;;;;;;;;;;5072312;28;20411;-54
2021/05/02 07:02:21;;;;;;;19.07;6.70;;;;;;;;;;5072433;28;20818;-55
2021/05/02 07:04:47;;;;;;;8.17;6.30;;;;;;;;;;5072077;28;20463;-54
2021/05/02 07:07:13;;;;;;;11.93;5.80;;;;;;;;;;5072245;28;20403;-54
2021/05/02 07:09:39;;;;;;;11.17;6.13;;;;;;;;;;5072031;28;20955;-54
2021/05/02 07:12:05;;;;;;;7.67;5.43;;;;;;;;;;5072381;28;20453;-54
2021/05/02 07:14:31;;;;;;;6.80;5.10;;;;;;;;;;5072340;28;20404;-54
2021/05/02 07:16:57;;;;;;;6.53;5.83;;;;;;;;;;5072173;28;20405;-54
2021/05/02 07:19:24;;;;;;;5.37;4.30;;;;;;;;;;5071815;28;20412;-55
2021/05/02 07:21:56;;;;;;;4.47;4.10;;;;;;;;;;5071988;28;20483;-55
2021/05/02 07:24:22;;;;;;;5.70;4.37;;;;;;;;;;5072238;28;20492;-57
2021/05/02 07:26:48;;;;;;;6.40;4.80;;;;;;;;;;5072562;28;20403;-55
2021/05/02 07:29:14;;;;;;;7.50;4.00;;;;;;;;;;5071804;28;21016;-55
2021/05/02 07:31:40;;;;;;;3.27;3.03;;;;;;;;;;5071785;28;20829;-55
2021/05/02 07:34:06;;;;;;;3.60;3.30;;;;;;;;;;5071817;28;20427;-54
2021/05/02 07:36:32;;;;;;;5.33;3.80;;;;;;;;;;5071671;28;20427;-54
2021/05/02 07:38:58;;;;;;;4.07;3.60;;;;;;;;;;5071528;28;20428;-54
2021/05/02 07:41:24;;;;;;;3.40;3.10;;;;;;;;;;5071608;28;20411;-54
2021/05/02 07:43:50;;;;;;;6.37;3.40;;;;;;;;;;5071186;28;20484;-54
2021/05/02 07:46:16;;;;;;;7.60;2.53;;;;;;;;;;5070811;28;20911;-54
2021/05/02 07:48:42;;;;;;;3.80;3.50;;;;;;;;;;5070596;28;20979;-54
2021/05/02 07:51:09;;;;;;;3.20;3.00;;;;;;;;;;5070805;28;20393;-54
2021/05/02 07:53:35;;;;;;;3.53;3.23;;;;;;;;;;5070933;28;20420;-55
2021/05/02 07:56:00;;;;;;;8.00;3.77;;;;;;;;;;5070914;28;20534;-54
2021/05/02 07:58:26;;;;;;;8.00;3.40;;;;;;;;;;5069994;28;20436;-55
2021/05/02 08:00:52;;;;;;;6.33;3.60;;;;;;;;;;5071187;28;20400;-54
2021/05/02 08:03:18;;;;;;;4.30;3.90;;;;;;;;;;5071010;28;20825;-54
2021/05/02 08:05:44;;;;;;;8.60;4.53;;;;;;;;;;5071162;28;20408;-54
2021/05/02 08:08:10;;;;;;;6.23;4.20;;;;;;;;;;5071047;28;20987;-55
2021/05/02 08:10:36;;;;;;;5.60;3.90;;;;;;;;;;5070852;28;20409;-55
2021/05/02 08:13:02;;;;;;;3.90;3.07;;;;;;;;;;5071041;28;20397;-55
2021/05/02 08:15:28;;;;;;;4.37;3.63;;;;;;;;;;5070399;28;20416;-55
2021/05/02 08:17:57;;;;;;;3.80;3.40;;;;;;;;;;5070846;28;20423;-55
2021/05/02 08:20:23;;;;;;;9.17;3.53;;;;;;;;;;5070740;28;20387;-55
2021/05/02 08:22:49;;;;;;;3.83;3.13;;;;;;;;;;5070812;28;20554;-54
2021/05/02 08:25:15;;;;;;;4.07;3.10;;;;;;;;;;5070939;28;20446;-55
2021/05/02 08:27:43;;;;;;;5.90;3.40;;;;;;;;;;5070762;28;20375;-55
2021/05/02 08:30:09;;;;;;;7.33;3.27;;;;;;;;;;5070678;28;20392;-55
2021/05/02 08:32:35;;;;;;;4.20;2.90;;;;;;;;;;5069426;28;20435;-54
2021/05/02 08:35:03;;;;;;;4.50;3.50;;;;;;;;;;5070696;28;20845;-54
2021/05/02 08:37:29;;;;;;;6.53;2.90;;;;;;;;;;5070612;28;20882;-54
2021/05/02 08:39:55;;;;;;;3.33;2.90;;;;;;;;;;5070532;28;20399;-55
2021/05/02 08:42:21;;;;;;;3.03;2.40;;;;;;;;;;5070790;28;20396;-55
2021/05/02 08:44:47;;;;;;;2.90;2.33;;;;;;;;;;5070686;28;20448;-55
2021/05/02 08:47:13;;;;;;;2.30;2.10;;;;;;;;;;5070495;28;20442;-55
2021/05/02 08:49:43;;;;;;;2.60;2.40;;;;;;;;;;5070367;28;20416;-55
2021/05/02 08:52:10;;;;;;;5.37;2.77;;;;;;;;;;5070600;28;20972;-54
2021/05/02 08:54:35;;;;;;;5.97;3.10;;;;;;;;;;5070678;28;20441;-54
2021/05/02 08:57:02;;;;;;;2.93;2.60;;;;;;;;;;5070598;28;20443;-55
2021/05/02 08:59:27;;;;;;;2.93;2.40;;;;;;;;;;5070313;28;20421;-55
2021/05/02 09:01:57;;;;;;;3.30;2.67;;;;;;;;;;5070518;28;20408;-54
2021/05/02 09:04:23;;;;;;;9.10;2.90;;;;;;;;;;5070543;28;20452;-54
2021/05/02 09:06:49;;;;;;;4.43;2.40;;;;;;;;;;5070747;28;20404;-54
2021/05/02 09:09:15;;;;;;;2.57;2.33;;;;;;;;;;5070198;28;20428;-54
2021/05/02 09:11:45;;;;;;;4.50;2.83;;;;;;;;;;5070596;28;20407;-54
2021/05/02 09:14:17;;;;;;;3.93;3.07;;;;;;;;;;5070496;28;20412;-54
2021/05/02 09:16:53;;;;;;;4.20;3.07;;;;;;;;;;5070526;28;20932;-55
2021/05/02 09:19:20;;;;;;;3.30;3.10;;;;;;;;;;5070305;28;20430;-54
2021/05/02 09:21:46;;;;;;;4.57;2.80;;;;;;;;;;5070662;28;20407;-54
2021/05/02 09:24:22;;;;;;;2.83;2.63;;;;;;;;;;5070505;28;20456;-55
2021/05/02 09:27:01;;;;;;;4.47;2.50;;;;;;;;;;5072460;28;20400;-55
2021/05/02 09:29:29;;;;;;;8.77;2.93;;;;;;;;;;5073897;28;20783;-55
2021/05/02 09:31:55;;;;;;;4.67;2.70;;;;;;;;;;5074053;28;20424;-56
2021/05/02 09:34:21;;;;;;;3.67;2.67;;;;;;;;;;5074007;28;20400;-55
2021/05/02 09:36:55;;;;;;;7.30;3.40;;;;;;;;;;5074057;28;20390;-55
2021/05/02 09:39:37;;;;;;;6.90;3.23;;;;;;;;;;5073508;28;20752;-55
2021/05/02 09:42:04;;;;;;;5.10;3.20;;;;;;;;;;5074156;28;20808;-54
2021/05/02 09:44:40;;;;;;;4.93;3.40;;;;;;;;;;5072415;28;20461;-55
2021/05/02 09:47:22;;;;;;;6.13;3.60;;;;;;;;;;5073979;28;20521;-55
2021/05/02 09:50:02;;;;;;;3.07;2.80;;;;;;;;;;5073306;28;20424;-54
2021/05/02 09:52:46;;;;;;;2.97;2.73;;;;;;;;;;5073770;28;20407;-54
2021/05/02 09:55:32;;;;;;;2.10;2.00;;;;;;;;;;5073674;28;20888;-55
2021/05/02 09:57:58;;;;;;;4.10;2.37;;;;;;;;;;5073470;28;20514;-55
2021/05/02 10:00:28;;;;;;;3.57;1.97;;;;;;;;;;5073489;28;20397;-54
2021/05/02 10:02:54;;;;;;;1.97;1.87;;;;;;;;;;5073406;28;21150;-55
2021/05/02 10:05:20;;;;;;;2.30;1.93;;;;;;;;;;5073324;28;21002;-55
2021/05/02 10:07:46;;;;;;;4.17;2.30;;;;;;;;;;5073535;28;20425;-55
2021/05/02 10:10:12;;;;;;;2.27;2.03;;;;;;;;;;5073044;28;20409;-55
2021/05/02 10:12:41;;;;;;;6.40;2.20;;;;;;;;;;5073300;28;20490;-55
2021/05/02 10:15:07;;;;;;;2.77;2.30;;;;;;;;;;5073382;28;20417;-55
2021/05/02 10:17:33;;;;;;;4.40;3.00;;;;;;;;;;5073400;28;20392;-55
2021/05/02 10:19:59;;;;;;;5.63;2.53;;;;;;;;;;5072917;28;20744;-54
2021/05/02 10:22:26;;;;;;;3.13;2.50;;;;;;;;;;5073235;28;20368;-54
2021/05/02 10:24:52;;;;;;;5.77;3.13;;;;;;;;;;5079387;28;20451;-54
2021/05/02 10:27:19;;;;;;;5.73;2.80;;;;;;;;;;5075847;28;20755;-55
2021/05/02 10:29:51;;;;;;;9.03;2.60;;;;;;;;;;5072144;28;20974;-55
2021/05/02 10:32:20;;;;;;;3.40;2.57;;;;;;;;;;5071596;28;20989;-56
2021/05/02 10:34:48;;;;;;;2.30;2.10;;;;;;;;;;5071530;28;20415;-55
2021/05/02 10:37:23;;;;;;;2.40;2.30;;;;;;;;;;5071574;28;20411;-55
2021/05/02 10:39:56;;;;;;;3.63;2.37;;;;;;;;;;5072161;28;20440;-56
2021/05/02 10:42:35;;;;;;;2.60;2.40;;;;;;;;;;5071773;28;20446;-54
2021/05/02 10:45:20;;;;;;;3.67;2.70;;;;;;;;;;5071366;28;20408;-55
2021/05/02 10:47:46;;;;;;;3.30;2.70;;;;;;;;;;5072437;28;20408;-54
2021/05/02 10:50:33;;;;;;;3.67;2.67;;;;;;;;;;5072189;28;20480;-54
2021/05/02 10:53:03;;;;;;;3.00;2.40;;;;;;;;;;5072546;28;20438;-54
2021/05/02 10:55:47;;;;;;;2.87;1.90;;;;;;;;;;5072333;28;20791;-55
2021/05/02 10:58:19;;;;;;;3.93;2.97;;;;;;;;;;5072445;28;20389;-54
2021/05/02 11:00:53;;;;;;;3.20;2.50;;;;;;;;;;5072038;28;20418;-54
2021/05/02 11:03:37;;;;;;;9.53;2.70;;;;;;;;;;5072491;28;20504;-54
2021/05/02 11:06:04;;;;;;;3.50;2.37;;;;;;;;;;5072312;28;20383;-55
2021/05/02 11:08:44;;;;;;;3.67;2.57;;;;;;;;;;5072339;28;20509;-54
2021/05/02 11:11:33;;;;;;;2.50;2.30;;;;;;;;;;5072202;28;20398;-55
2021/05/02 11:14:08;;;;;;;5.17;2.50;;;;;;;;;;5076141;28;20438;-54
2021/05/02 11:16:34;;;;;;;6.20;3.07;;;;;;;;;;5092038;28;20398;-54
2021/05/02 11:19:00;;;;;;;2.53;2.33;;;;;;;;;;5091973;28;20424;-54
2021/05/02 11:21:26;;;;;;;4.17;2.00;;;;;;;;;;5092069;28;20404;-54
2021/05/02 11:24:03;;;;;;;3.10;2.90;;;;;;;;;;5092333;28;20540;-54
2021/05/02 11:26:51;;;;;;;2.20;2.10;;;;;;;;;;5092297;28;20911;-54
2021/05/02 11:29:20;;;;;;;2.40;2.20;;;;;;;;;;5091829;28;20918;-54
2021/05/02 11:31:46;;;;;;;6.17;2.43;;;;;;;;;;5091935;28;20420;-54
2021/05/02 11:34:12;;;;;;;4.53;2.50;;;;;;;;;;5091940;28;20532;-54
2021/05/02 11:36:43;;;;;;;2.63;2.43;;;;;;;;;;5092119;28;20405;-55
2021/05/02 11:39:27;;;;;;;2.33;2.00;;;;;;;;;;5091393;28;20510;-54
2021/05/02 11:42:02;;;;;;;4.17;1.97;;;;;;;;;;5091812;28;20410;-55
2021/05/02 11:44:29;;;;;;;3.00;2.80;;;;;;;;;;5091541;28;20445;-54
2021/05/02 11:47:05;;;;;;;2.73;2.07;;;;;;;;;;5091673;28;20414;-55
2021/05/02 11:49:35;;;;;;;2.27;1.90;;;;;;;;;;5090483;28;20463;-55
2021/05/02 11:52:01;;;;;;;3.63;2.13;;;;;;;;;;5091656;28;20400;-54
2021/05/02 11:54:27;;;;;;;2.63;2.10;;;;;;;;;;5091558;28;20423;-54
2021/05/02 11:56:53;;;;;;;1.73;1.63;;;;;;;;;;5091450;28;20765;-55
2021/05/02 11:59:19;;;;;;;5.17;4.23;;;;;;;;;;5091312;28;20431;-54
2021/05/02 12:01:52;;;;;;;5.23;2.17;;;;;;;;;;5091371;28;20966;-54
2021/05/02 12:04:19;;;;;;;2.27;2.00;;;;;;;;;;5091458;28;20459;-54
2021/05/02 12:06:46;;;;;;;1.70;1.60;;;;;;;;;;5091370;28;20413;-54
2021/05/02 12:09:13;;;;;;;2.57;2.07;;;;;;;;;;5091020;28;20419;-54
2021/05/02 12:11:40;;;;;;;4.23;2.10;;;;;;;;;;5091084;28;20408;-54
2021/05/02 12:14:06;;;;;;;4.50;2.20;;;;;;;;;;5091472;28;20406;-54
2021/05/02 12:16:32;;;;;;;1.93;1.80;;;;;;;;;;5091206;28;20415;-55
2021/05/02 12:19:02;;;;;;;5.20;1.90;;;;;;;;;;5090951;28;20432;-54
2021/05/02 12:21:28;;;;;;;2.77;1.93;;;;;;;;;;5091160;28;20433;-54
2021/05/02 12:24:04;;;;;;;2.20;2.00;;;;;;;;;;5090985;28;20461;-54
2021/05/02 12:26:30;;;;;;;2.57;1.90;;;;;;;;;;5090960;28;20400;-54
2021/05/02 12:28:58;;;;;;;2.40;2.13;;;;;;;;;;5090768;28;20793;-54
2021/05/02 12:31:24;;;;;;;3.00;2.10;;;;;;;;;;5078005;28;20417;-54
2021/05/02 12:33:51;;;;;;;2.30;2.10;;;;;;;;;;5072265;28;20895;-51
2021/05/02 12:36:18;;;;;;;2.90;2.23;;;;;;;;;;5071912;28;20407;-55
2021/05/02 12:38:44;;;;;;;3.97;1.97;;;;;;;;;;5070386;28;20438;-55
2021/05/02 12:41:18;;;;;;;2.07;1.80;;;;;;;;;;5069812;28;20411;-54
2021/05/02 12:43:49;;;;;;;2.10;1.90;;;;;;;;;;5068700;28;20455;-55
2021/05/02 12:46:34;;;;;;;3.13;2.00;;;;;;;;;;5069758;28;20575;-55
2021/05/02 12:49:10;;;;;;;9.43;1.90;;;;;;;;;;5070222;28;20920;-54
2021/05/02 12:51:36;;;;;;;4.80;2.03;;;;;;;;;;5079023;28;20426;-54
2021/05/02 12:54:06;;;;;;;3.50;2.30;;;;;;;;;;5090959;28;20418;-54
2021/05/02 12:56:32;;;;;;;2.23;2.03;;;;;;;;;;5090798;28;20403;-54
2021/05/02 12:59:00;;;;;;;1.90;1.70;;;;;;;;;;5090322;28;20422;-55
2021/05/02 13:01:26;;;;;;;3.27;1.90;;;;;;;;;;5092180;28;20815;-55
2021/05/02 13:03:56;;;;;;;1.87;1.70;;;;;;;;;;5094990;28;20547;-55
2021/05/02 13:06:22;;;;;;;6.63;2.27;;;;;;;;;;5094831;28;20905;-54
2021/05/02 13:08:58;;;;;;;2.60;1.90;;;;;;;;;;5094583;28;20495;-54
2021/05/02 13:11:29;;;;;;;3.83;1.80;;;;;;;;;;5094731;28;20441;-55
2021/05/02 13:14:13;;;;;;;2.50;2.30;;;;;;;;;;5094576;28;20417;-54
2021/05/02 13:16:40;;;;;;;2.50;2.27;;;;;;;;;;5094934;28;20394;-55
2021/05/02 13:19:06;;;;;;;3.90;2.20;;;;;;;;;;5094440;28;20489;-55
2021/05/02 13:21:32;;;;;;;1.90;1.80;;;;;;;;;;5094558;28;20444;-54
2021/05/02 13:24:07;;;;;;;2.40;2.20;;;;;;;;;;5094450;28;20454;-54
2021/05/02 13:26:40;;;;;;;2.70;2.10;;;;;;;;;;5094744;28;20400;-53
2021/05/02 13:29:06;;;;;;;1.87;1.77;;;;;;;;;;5094253;28;20416;-52
2021/05/02 13:31:49;;;;;;;5.03;2.03;;;;;;;;;;5094105;28;20451;-51
2021/05/02 13:34:16;;;;;;;1.90;1.80;;;;;;;;;;5094409;28;20403;-51
2021/05/02 13:36:44;;;;;;;2.10;2.00;;;;;;;;;;5094259;28;20887;-52
2021/05/02 13:39:10;;;;;;;2.27;2.07;;;;;;;;;;5092545;28;20427;-55
2021/05/02 13:41:36;;;;;;;2.73;2.53;;;;;;;;;;5094087;28;20444;-52
2021/05/02 13:44:03;;;;;;;2.40;2.20;;;;;;;;;;5093922;28;20466;-52
2021/05/02 13:46:29;;;;;;;2.60;2.50;;;;;;;;;;5094200;28;20400;-52
2021/05/02 13:48:56;;;;;;;6.33;2.57;;;;;;;;;;5093765;28;20468;-55
2021/05/02 13:51:22;;;;;;;2.80;2.40;;;;;;;;;;5093942;28;20420;-52
2021/05/02 13:53:51;;;;;;;3.00;2.70;;;;;;;;;;5094097;28;20431;-52
2021/05/02 13:56:18;;;;;;;3.30;2.80;;;;;;;;;;5092595;28;20422;-52
2021/05/02 13:58:45;;;;;;;2.90;2.70;;;;;;;;;;5093585;28;20423;-52
2021/05/02 14:01:11;;;;;;;3.10;2.90;;;;;;;;;;5093780;28;20809;-52
2021/05/02 14:03:37;;;;;;;2.30;2.20;;;;;;;;;;5093751;28;20947;-52
2021/05/02 14:06:03;;;;;;;4.87;2.73;;;;;;;;;;5093553;28;20403;-52
2021/05/02 14:08:29;;;;;;;6.53;2.87;;;;;;;;;;5093671;28;20420;-52
2021/05/02 14:10:55;;;;;;;3.33;3.03;;;;;;;;;;5093302;28;20766;-52
2021/05/02 14:13:21;;;;;;;3.70;2.87;;;;;;;;;;5092510;28;20499;-55
2021/05/02 14:15:47;;;;;;;2.27;2.00;;;;;;;;;;5093740;28;20964;-54
2021/05/02 14:18:13;;;;;;;2.37;2.10;;;;;;;;;;5093535;28;20419;-54
2021/05/02 14:20:39;;;;;;;7.27;2.10;;;;;;;;;;5093237;28;20406;-52
2021/05/02 14:23:08;;;;;;;2.23;2.10;;;;;;;;;;5093336;28;21033;-53
2021/05/02 14:25:34;;;;;;;2.23;2.00;;;;;;;;;;5093349;28;20370;-52
2021/05/02 14:28:00;;;;;;;11.47;2.83;;;;;;;;;;5093207;28;20386;-56
2021/05/02 14:30:26;;;;;;;2.00;1.73;;;;;;;;;;5093091;28;20381;-53
2021/05/02 14:32:52;;;;;;;5.30;2.00;;;;;;;;;;5093097;28;20462;-53
2021/05/02 14:35:18;;;;;;;3.53;1.80;;;;;;;;;;5093191;28;20427;-52
2021/05/02 14:37:47;;;;;;;2.20;2.10;;;;;;;;;;5093053;28;20462;-52